ヘルシンキ/ヴァンター の空港の天気 - METARとTAF

ヘルシンキ・ヴァンター国際空港 ( EFHK / HEL ) - フィンランド ヴァンター
飛行場実況気象(Metar)
観測時間01/23 09:50 EET (01/23 07:50 UTC)
風向・風速西南西 2m/s
視程10km以上
天気現象
全天の8割程度の雲 雲底高度 1310m
気温-13℃
湿度85%
気圧1020hPa
METAREFHK 230750Z 25004KT 9999 BKN043 M13/M15 Q1020 NOSIG
過去の天気等 Google飛行場航空写真 Wunderground天気予報

過去48時間のMETAR

飛行場予報(TAF)
発表時間: 1/23 07:37 EET (1/23 05:37 UTC)
予報対象時間: 23日8時 EET ~ 24日8時 EET
風向・風速西北西 3m/s
視程10km以上
全天の8割程度の雲 雲底高度 1,220m
23日22時 EET ~ 23日24時 EET に徐々に
風向・風速南 9m/s
23日22時 EET ~ 24日5時 EET に一時的に
視程4,000m
天気現象弱い雪
全天の8割程度の雲 雲底高度 270m
24日5時 EET ~ 24日7時 EET に徐々に
全天の8割程度の雲 雲底高度 300m
TAF EFHK 230537Z 2306/2406 30005KT 9999 BKN040
BECMG 2320/2322 17018KT
TEMPO 2320/2403 4000 -SN BKN009
BECMG 2403/2405 BKN010